METAR UND TAF INFORMATION
UHMA 241230Z 29002MPS CAVOK 10/08 Q0999 R01/CLRD60 NOSIG RMK TDZ R01/29002MPS END R01/15001MPS QFE745/0994

 FLUGHAFENKARTE

 RUNWAY INFORMATION
Runway 01 Runway length 11483 ft Runway width 196 ft
Runway elevation 138 ft Runway displaced threshold 0 ft Runway heading 14
Runway 19 Runway length 11483 ft Runway width 196 ft
Runway elevation 194 ft Runway displaced threshold 0 ft Runway heading 194

 AIRPORT FREQUENCIES
Type APP Name ANADYR APP Frequency 124 MHZ
Type PMSV Name ANADYR MET Frequency 126.2 MHZ
Type TWR Name ANADYR TWR Frequency 124 MHZ

 AIRPORT NEAR NAVIGATION AIDS
Type NDB Name Anadyr Frequency 790 KHZ
Type NDB Name Anadyr Frequency 790 KHZ